Time;durP1;ratioP1;P1;durP2;ratioP2;P2;SDS_P1;SDS_P2;PMS_P1;PMS_P2;Temp;Humidity;BMP_temperature;BMP_pressure;BME280_temperature;BME280_humidity;BME280_pressure;Samples;Min_cycle;Max_cycle;Signal;HPM_P1;HPM_P2
2021/08/12 00:02:06;;;;;;;5.47;1.70;;;38.80;38.30;;;;;;5079693;28;20503;-56
2021/08/12 00:04:33;;;;;;;5.80;1.52;;;38.50;38.80;;;;;;5083182;28;20091;-52
2021/08/12 00:06:59;;;;;;;2.05;1.70;;;38.50;39.20;;;;;;5079619;28;20127;-56
2021/08/12 00:09:26;;;;;;;2.92;1.38;;;38.50;40.60;;;;;;5079650;28;20077;-56
2021/08/12 00:11:57;;;;;;;5.90;1.50;;;38.60;41.00;;;;;;5087127;28;20084;-53
2021/08/12 00:14:25;;;;;;;5.03;1.70;;;38.40;40.40;;;;;;5083533;28;20549;-54
2021/08/12 00:16:55;;;;;;;4.82;1.80;;;38.60;39.20;;;;;;5083719;28;20080;-57
2021/08/12 00:19:23;;;;;;;4.20;1.75;;;38.50;40.60;;;;;;5083870;28;20456;-52
2021/08/12 00:21:52;;;;;;;5.20;1.50;;;38.40;39.30;;;;;;5083516;28;21365;-55
2021/08/12 00:24:21;;;;;;;2.60;1.42;;;38.40;39.80;;;;;;5085868;28;20079;-54
2021/08/12 00:26:50;;;;;;;5.63;1.95;;;38.40;40.60;;;;;;5079461;28;20084;-54
2021/08/12 00:29:17;;;;;;;5.25;1.60;;;38.10;38.70;;;;;;5085237;28;20079;-57
2021/08/12 00:31:45;;;;;;;7.57;1.80;;;38.20;41.50;;;;;;5082538;28;20087;-56
2021/08/12 00:34:14;;;;;;;4.72;1.98;;;38.20;41.50;;;;;;5080134;28;20077;-57
2021/08/12 00:36:40;;;;;;;3.97;1.70;;;38.20;39.90;;;;;;5078505;28;20084;-54
2021/08/12 00:39:07;;;;;;;6.45;2.28;;;38.20;40.90;;;;;;5082938;28;20148;-54
2021/08/12 00:41:36;;;;;;;6.53;1.60;;;38.20;41.10;;;;;;5082529;28;20096;-56
2021/08/12 00:44:04;;;;;;;4.45;2.10;;;38.00;41.10;;;;;;5082827;28;20088;-56
2021/08/12 00:46:30;;;;;;;4.10;2.13;;;38.00;39.30;;;;;;5082869;28;20069;-57
2021/08/12 00:48:57;;;;;;;7.25;1.90;;;38.00;41.40;;;;;;5085577;28;20115;-56
2021/08/12 00:51:24;;;;;;;6.45;1.80;;;38.00;40.10;;;;;;5080760;28;20105;-57
2021/08/12 00:53:50;;;;;;;3.47;1.83;;;38.00;40.60;;;;;;5085503;28;20153;-55
2021/08/12 00:56:17;;;;;;;4.78;2.00;;;38.10;41.00;;;;;;5083045;28;20076;-55
2021/08/12 00:58:44;;;;;;;10.30;1.85;;;37.90;42.00;;;;;;5081285;28;20527;-56
2021/08/12 01:01:11;;;;;;;4.90;1.60;;;37.70;42.30;;;;;;5080561;28;20081;-54
2021/08/12 01:03:38;;;;;;;4.68;2.15;;;37.70;42.00;;;;;;5079466;28;20085;-53
2021/08/12 01:06:06;;;;;;;7.32;1.63;;;37.70;42.10;;;;;;5082601;28;20156;-57
2021/08/12 01:09:01;;;;;;;6.53;1.88;;;37.60;41.60;;;;;;5079835;28;20080;-57
2021/08/12 01:11:38;;;;;;;4.25;1.58;;;37.70;41.40;;;;;;5080312;28;20084;-55
2021/08/12 01:14:08;;;;;;;5.40;1.60;;;37.60;42.20;;;;;;5084302;28;20069;-53
2021/08/12 01:16:56;;;;;;;4.85;1.63;;;37.60;42.50;;;;;;5081377;28;20541;-57
2021/08/12 01:19:30;;;;;;;4.35;1.40;;;37.40;40.30;;;;;;5085725;28;20789;-58
2021/08/12 01:22:07;;;;;;;5.40;1.40;;;37.40;41.00;;;;;;5086101;28;20096;-55
2021/08/12 01:24:38;;;;;;;2.85;1.70;;;37.40;41.90;;;;;;5083411;28;20084;-56
2021/08/12 01:27:08;;;;;;;5.22;1.50;;;37.30;41.40;;;;;;5085823;28;20085;-57
2021/08/12 01:29:50;;;;;;;5.10;1.73;;;37.30;41.60;;;;;;5084597;28;20073;-54
2021/08/12 01:32:41;;;;;;;6.30;2.05;;;37.30;42.30;;;;;;5091049;28;20099;-55
2021/08/12 01:35:19;;;;;;;5.63;2.50;;;37.10;42.20;;;;;;5070886;28;20081;-53
2021/08/12 01:38:06;;;;;;;4.80;1.75;;;37.10;42.50;;;;;;5088365;28;20107;-56
2021/08/12 01:40:35;;;;;;;5.78;1.75;;;37.00;41.40;;;;;;5081901;28;20118;-59
2021/08/12 01:43:09;;;;;;;5.30;1.90;;;37.10;42.30;;;;;;5087270;28;20092;-56
2021/08/12 01:45:35;;;;;;;5.15;1.83;;;37.10;42.50;;;;;;5087605;28;20274;-55
2021/08/12 01:48:03;;;;;;;9.25;1.63;;;36.90;43.10;;;;;;5087114;28;20541;-56
2021/08/12 01:50:30;;;;;;;3.83;1.50;;;36.90;42.60;;;;;;5085996;28;20165;-55
2021/08/12 01:53:01;;;;;;;6.40;1.75;;;36.80;42.00;;;;;;5083646;28;20173;-55
2021/08/12 01:55:32;;;;;;;6.00;1.92;;;36.70;42.40;;;;;;5087189;28;20583;-56
2021/08/12 01:58:00;;;;;;;11.90;1.80;;;36.60;42.70;;;;;;5085983;28;20086;-56
2021/08/12 02:00:29;;;;;;;7.95;2.10;;;36.60;43.20;;;;;;5085129;28;20102;-54
2021/08/12 02:02:58;;;;;;;3.05;1.83;;;36.50;43.50;;;;;;5084405;28;20108;-57
2021/08/12 02:05:25;;;;;;;7.53;2.13;;;36.50;44.30;;;;;;5082190;28;20080;-57
2021/08/12 02:07:52;;;;;;;7.85;2.20;;;36.40;43.90;;;;;;5084203;28;20069;-53
2021/08/12 02:10:19;;;;;;;4.82;1.65;;;36.30;44.10;;;;;;5081746;28;20079;-56
2021/08/12 02:12:47;;;;;;;6.97;2.28;;;36.20;44.60;;;;;;5091069;28;20081;-56
2021/08/12 02:15:14;;;;;;;7.18;2.28;;;36.10;44.20;;;;;;5085459;28;20479;-57
2021/08/12 02:17:41;;;;;;;7.15;2.38;;;36.00;44.10;;;;;;5086083;28;20433;-57
2021/08/12 02:20:11;;;;;;;11.90;2.55;;;36.00;44.10;;;;;;5083794;28;20163;-56
2021/08/12 02:22:49;;;;;;;14.50;2.78;;;36.00;44.40;;;;;;5082601;28;20558;-55
2021/08/12 02:25:42;;;;;;;9.65;2.30;;;35.80;44.70;;;;;;5087287;28;20453;-55
2021/08/12 02:28:10;;;;;;;8.68;2.15;;;35.80;44.70;;;;;;5082428;28;20207;-57
2021/08/12 02:30:43;;;;;;;6.32;2.50;;;35.70;45.10;;;;;;5083629;28;20134;-58
2021/08/12 02:33:15;;;;;;;8.32;2.63;;;35.60;45.10;;;;;;5082683;28;20088;-57
2021/08/12 02:35:43;;;;;;;13.13;4.18;;;35.60;45.40;;;;;;5085346;28;20072;-55
2021/08/12 02:38:13;;;;;;;8.65;3.05;;;35.60;45.80;;;;;;5086550;28;20105;-55
2021/08/12 02:40:42;;;;;;;7.65;2.47;;;35.50;46.30;;;;;;5079536;28;20069;-54
2021/08/12 02:43:10;;;;;;;7.85;2.65;;;35.40;45.70;;;;;;5087574;28;20097;-56
2021/08/12 02:45:37;;;;;;;11.43;3.00;;;35.40;46.60;;;;;;5086416;28;20073;-58
2021/08/12 02:48:07;;;;;;;7.75;2.60;;;35.30;46.50;;;;;;5084755;28;20160;-57
2021/08/12 02:50:38;;;;;;;10.55;2.88;;;35.30;47.00;;;;;;5083804;28;20152;-55
2021/08/12 02:53:06;;;;;;;9.02;2.33;;;35.20;47.30;;;;;;5085053;28;20072;-57
2021/08/12 02:55:34;;;;;;;10.63;2.60;;;35.10;47.60;;;;;;5084713;28;20084;-53
2021/08/12 02:58:02;;;;;;;16.27;2.97;;;35.10;47.70;;;;;;5086035;28;20064;-57
2021/08/12 03:00:30;;;;;;;8.70;3.15;;;35.10;47.30;;;;;;5084544;28;20158;-58
2021/08/12 03:02:57;;;;;;;13.45;2.72;;;35.10;47.50;;;;;;5084759;28;20108;-54
2021/08/12 03:05:25;;;;;;;10.32;3.53;;;35.10;47.60;;;;;;5082118;28;20096;-55
2021/08/12 03:07:52;;;;;;;18.38;4.03;;;35.10;47.50;;;;;;5083491;28;20156;-53
2021/08/12 03:10:20;;;;;;;14.75;3.50;;;34.90;48.10;;;;;;5085194;28;20608;-54
2021/08/12 03:12:51;;;;;;;11.85;3.67;;;35.00;48.20;;;;;;5083340;28;20084;-58
2021/08/12 03:15:18;;;;;;;11.70;3.65;;;34.90;48.60;;;;;;5081490;28;20545;-57
2021/08/12 03:17:44;;;;;;;14.82;4.40;;;34.90;48.80;;;;;;5083295;28;20080;-56
2021/08/12 03:20:12;;;;;;;18.48;4.18;;;34.90;48.70;;;;;;5081123;28;20081;-55
2021/08/12 03:22:40;;;;;;;15.68;5.07;;;34.80;48.70;;;;;;5082725;28;20533;-57
2021/08/12 03:25:07;;;;;;;12.23;4.28;;;34.70;49.20;;;;;;5086993;28;20132;-55
2021/08/12 03:27:33;;;;;;;12.77;4.70;;;34.70;50.60;;;;;;5082654;28;20145;-55
2021/08/12 03:30:00;;;;;;;11.23;4.78;;;34.70;49.70;;;;;;5081269;28;20069;-54
2021/08/12 03:32:27;;;;;;;10.38;4.10;;;34.60;49.50;;;;;;5081345;28;20073;-53
2021/08/12 03:34:53;;;;;;;9.95;3.90;;;34.60;49.40;;;;;;5085166;28;20160;-55
2021/08/12 03:37:19;;;;;;;12.48;3.40;;;34.60;49.70;;;;;;5082388;28;20084;-57
2021/08/12 03:39:46;;;;;;;14.32;3.60;;;34.50;49.70;;;;;;5082817;28;20168;-55
2021/08/12 03:42:12;;;;;;;13.90;3.30;;;34.60;50.00;;;;;;5082513;28;20112;-53
2021/08/12 03:44:39;;;;;;;17.50;3.65;;;34.60;49.80;;;;;;5085955;28;20077;-56
2021/08/12 03:47:06;;;;;;;20.92;3.42;;;34.60;49.70;;;;;;5085400;28;20079;-57
2021/08/12 03:49:34;;;;;;;15.10;4.50;;;34.50;50.50;;;;;;5080400;28;21580;-56
2021/08/12 03:52:00;;;;;;;19.48;5.38;;;34.50;50.80;;;;;;5077884;28;20182;-55
2021/08/12 03:54:26;;;;;;;20.48;6.03;;;34.50;51.20;;;;;;5084118;28;20187;-56
2021/08/12 03:56:53;;;;;;;19.65;5.88;;;34.50;51.00;;;;;;5082901;28;20092;-55
2021/08/12 03:59:21;;;;;;;26.85;6.22;;;34.50;51.30;;;;;;5081450;28;20642;-54
2021/08/12 04:01:48;;;;;;;20.92;5.20;;;34.50;51.80;;;;;;5078882;28;20171;-54
2021/08/12 04:04:15;;;;;;;22.25;4.60;;;34.50;52.10;;;;;;5080734;28;20083;-56
2021/08/12 04:06:43;;;;;;;22.55;4.82;;;34.50;51.60;;;;;;5098743;28;20564;-58
2021/08/12 04:09:09;;;;;;;27.33;4.15;;;34.40;51.70;;;;;;5080117;28;20111;-57
2021/08/12 04:11:36;;;;;;;20.33;5.00;;;34.40;52.30;;;;;;5083842;28;20107;-54
2021/08/12 04:14:02;;;;;;;17.27;4.53;;;34.40;54.50;;;;;;5086044;28;20080;-54
2021/08/12 04:16:28;;;;;;;22.48;4.95;;;34.30;55.70;;;;;;5082692;28;20077;-57
2021/08/12 04:18:55;;;;;;;20.92;5.22;;;34.30;56.80;;;;;;5080274;28;20086;-56
2021/08/12 04:21:21;;;;;;;26.48;5.57;;;34.20;57.60;;;;;;5083414;28;20399;-53
2021/08/12 04:23:48;;;;;;;21.48;5.03;;;34.20;58.20;;;;;;5087414;28;20084;-56
2021/08/12 04:26:15;;;;;;;28.77;5.60;;;34.20;58.80;;;;;;5081833;28;20073;-57
2021/08/12 04:28:41;;;;;;;20.27;5.10;;;34.20;59.80;;;;;;5082763;28;20541;-54
2021/08/12 04:31:08;;;;;;;25.33;4.82;;;34.10;60.80;;;;;;5081712;28;20065;-57
2021/08/12 04:33:34;;;;;;;19.60;4.88;;;34.10;62.30;;;;;;5083231;28;20104;-60
2021/08/12 04:36:00;;;;;;;20.00;4.80;;;34.00;64.30;;;;;;5082637;28;22352;-51
2021/08/12 04:38:27;;;;;;;23.15;5.15;;;33.80;66.00;;;;;;5083745;28;20476;-57
2021/08/12 04:40:54;;;;;;;18.40;4.57;;;33.80;67.50;;;;;;5080040;28;20075;-55
2021/08/12 04:43:21;;;;;;;10.43;3.88;;;33.70;68.60;;;;;;5081172;28;20602;-57
2021/08/12 04:45:47;;;;;;;19.65;3.75;;;33.70;69.90;;;;;;5082170;28;20524;-58
2021/08/12 04:48:15;;;;;;;12.93;3.60;;;33.60;70.90;;;;;;5082564;28;20092;-59
2021/08/12 04:50:42;;;;;;;19.20;3.65;;;33.40;71.90;;;;;;5082151;28;20190;-55
2021/08/12 04:53:08;;;;;;;14.25;3.17;;;33.80;73.00;;;;;;5080421;28;20084;-56
2021/08/12 04:55:35;;;;;;;17.67;4.47;;;33.30;73.40;;;;;;5062351;28;20084;-56
2021/08/12 04:58:01;;;;;;;21.30;6.00;;;33.20;76.10;;;;;;5083080;28;20091;-54
2021/08/12 05:00:27;;;;;;;17.45;5.40;;;33.20;74.40;;;;;;5079840;28;20083;-53
2021/08/12 05:02:54;;;;;;;14.88;4.65;;;33.20;75.40;;;;;;5081442;28;20101;-59
2021/08/12 05:05:20;;;;;;;13.95;4.38;;;33.20;75.20;;;;;;5081254;28;20750;-55
2021/08/12 05:07:47;;;;;;;13.00;4.85;;;33.20;75.70;;;;;;5080727;28;20073;-56
2021/08/12 05:10:14;;;;;;;21.10;6.35;;;33.10;75.80;;;;;;5080948;28;20069;-52
2021/08/12 05:12:40;;;;;;;15.07;6.05;;;33.10;76.30;;;;;;5080201;28;20069;-53
2021/08/12 05:15:07;;;;;;;18.48;5.65;;;33.10;75.30;;;;;;5081611;28;20137;-52
2021/08/12 05:17:34;;;;;;;15.85;5.65;;;33.10;75.30;;;;;;5083406;28;20167;-52
2021/08/12 05:20:00;;;;;;;16.95;5.70;;;33.10;75.50;;;;;;5083294;28;20090;-53
2021/08/12 05:22:27;;;;;;;21.67;6.28;;;33.10;75.10;;;;;;5081432;28;20154;-54
2021/08/12 05:24:53;;;;;;;24.20;5.57;;;33.20;74.90;;;;;;5083008;28;20072;-53
2021/08/12 05:27:20;;;;;;;19.40;5.57;;;33.10;74.50;;;;;;5081296;28;20109;-54
2021/08/12 05:29:46;;;;;;;20.27;6.07;;;33.10;73.40;;;;;;5080880;28;20482;-53
2021/08/12 05:32:13;;;;;;;20.33;6.07;;;33.20;73.10;;;;;;5079656;28;20123;-57
2021/08/12 05:34:39;;;;;;;22.02;5.97;;;33.20;72.50;;;;;;5080518;28;20537;-55
2021/08/12 05:37:06;;;;;;;25.20;5.80;;;33.20;71.90;;;;;;5079431;28;20087;-55
2021/08/12 05:39:32;;;;;;;22.90;6.03;;;33.30;70.20;;;;;;5079077;28;20080;-55
2021/08/12 05:41:59;;;;;;;24.02;6.25;;;33.40;68.80;;;;;;5078026;28;20081;-56
2021/08/12 05:44:25;;;;;;;21.88;6.32;;;33.40;68.50;;;;;;5081869;28;20085;-54
2021/08/12 05:46:52;;;;;;;20.08;5.20;;;33.40;67.50;;;;;;5080791;28;20083;-56
2021/08/12 05:49:23;;;;;;;20.98;6.10;;;33.40;67.50;;;;;;5084613;28;20072;-56
2021/08/12 05:51:50;;;;;;;22.30;6.30;;;33.40;67.60;;;;;;5076152;28;20116;-53
2021/08/12 05:54:17;;;;;;;20.13;6.22;;;33.40;68.00;;;;;;5078981;28;20073;-56
2021/08/12 05:56:52;;;;;;;20.45;6.38;;;33.40;68.60;;;;;;5077063;28;20118;-51
2021/08/12 05:59:18;;;;;;;23.00;6.22;;;33.40;69.10;;;;;;5085316;28;20077;-53
2021/08/12 06:01:45;;;;;;;19.35;6.38;;;33.30;69.60;;;;;;5082983;28;20091;-55
2021/08/12 06:04:11;;;;;;;23.60;6.55;;;33.30;70.20;;;;;;5082679;28;20077;-54
2021/08/12 06:06:39;;;;;;;20.55;6.28;;;33.30;70.30;;;;;;5077400;28;20065;-53
2021/08/12 06:09:06;;;;;;;19.70;6.55;;;33.40;70.70;;;;;;5092281;28;20084;-55
2021/08/12 06:11:33;;;;;;;21.95;8.07;;;33.30;71.20;;;;;;5084764;28;20073;-54
2021/08/12 06:14:00;;;;;;;27.55;9.45;;;33.30;71.60;;;;;;5085273;28;20559;-57
2021/08/12 06:16:27;;;;;;;21.63;8.70;;;33.30;72.20;;;;;;5086442;28;20076;-56
2021/08/12 06:18:53;;;;;;;23.50;8.18;;;33.30;72.90;;;;;;5086142;28;20089;-54
2021/08/12 06:21:22;;;;;;;24.02;9.15;;;33.30;72.90;;;;;;5081095;28;20081;-56
2021/08/12 06:23:48;;;;;;;27.00;7.93;;;33.20;73.30;;;;;;5086977;28;20209;-54
2021/08/12 06:26:15;;;;;;;25.70;7.40;;;33.20;73.50;;;;;;5085740;28;20096;-58
2021/08/12 06:28:43;;;;;;;30.70;7.35;;;33.20;74.00;;;;;;5086789;28;20072;-53
2021/08/12 06:31:09;;;;;;;29.30;7.45;;;33.10;74.30;;;;;;5084332;28;20164;-58
2021/08/12 06:33:36;;;;;;;26.17;6.90;;;33.10;74.50;;;;;;5084645;28;20441;-56
2021/08/12 06:36:03;;;;;;;21.17;6.38;;;33.00;74.60;;;;;;5087209;28;20075;-55
2021/08/12 06:38:30;;;;;;;18.20;5.95;;;33.00;74.90;;;;;;5085775;28;20171;-57
2021/08/12 06:40:56;;;;;;;19.60;6.43;;;33.10;75.20;;;;;;5086694;28;20088;-53
2021/08/12 06:43:22;;;;;;;17.65;6.10;;;33.00;75.00;;;;;;5080646;28;20105;-54
2021/08/12 06:45:49;;;;;;;16.85;6.50;;;33.00;75.20;;;;;;5087394;28;20079;-55
2021/08/12 06:48:16;;;;;;;24.20;7.32;;;32.90;75.40;;;;;;5087249;28;20167;-55
2021/08/12 06:50:42;;;;;;;19.15;7.78;;;32.90;75.60;;;;;;5085779;28;20108;-54
2021/08/12 06:53:09;;;;;;;20.13;7.65;;;32.90;75.90;;;;;;5085053;28;20141;-53
2021/08/12 06:55:35;;;;;;;21.38;7.40;;;32.90;76.70;;;;;;5085352;28;20477;-55
2021/08/12 06:58:02;;;;;;;17.15;6.95;;;32.80;76.60;;;;;;5084965;28;20077;-54
2021/08/12 07:00:29;;;;;;;17.10;6.82;;;32.80;77.10;;;;;;5085463;28;20088;-55
2021/08/12 07:02:56;;;;;;;20.98;7.13;;;32.80;77.20;;;;;;5082493;28;20213;-57
2021/08/12 07:05:22;;;;;;;19.90;7.40;;;32.70;76.80;;;;;;5068284;28;20084;-53
2021/08/12 07:07:49;;;;;;;27.77;7.65;;;32.70;76.90;;;;;;5080967;28;20077;-54
2021/08/12 07:10:16;;;;;;;20.20;7.22;;;32.70;77.30;;;;;;5085705;28;20430;-53
2021/08/12 07:12:42;;;;;;;18.90;6.85;;;32.70;77.60;;;;;;5084358;28;20536;-53
2021/08/12 07:15:09;;;;;;;17.48;5.63;;;32.70;78.20;;;;;;5086575;28;20167;-53
2021/08/12 07:17:36;;;;;;;13.88;4.28;;;32.70;79.00;;;;;;5079375;28;20081;-54
2021/08/12 07:20:05;;;;;;;17.05;4.20;;;32.60;80.40;;;;;;5085476;28;20093;-53
2021/08/12 07:22:32;;;;;;;17.90;4.15;;;32.50;81.50;;;;;;5083479;28;20117;-56
2021/08/12 07:25:01;;;;;;;13.38;3.80;;;32.50;82.20;;;;;;5083416;28;20541;-54
2021/08/12 07:27:28;;;;;;;17.15;4.18;;;32.40;82.80;;;;;;5084047;28;20159;-57
2021/08/12 07:29:55;;;;;;;16.73;4.63;;;32.40;83.70;;;;;;5085297;28;20164;-53
2021/08/12 07:32:21;;;;;;;14.23;4.63;;;32.30;84.30;;;;;;5084906;28;20508;-57
2021/08/12 07:34:48;;;;;;;16.92;4.05;;;32.40;84.80;;;;;;5085026;28;20150;-53
2021/08/12 07:37:15;;;;;;;14.18;4.10;;;32.40;84.70;;;;;;5085072;28;20107;-53
2021/08/12 07:39:41;;;;;;;15.75;4.00;;;32.30;85.00;;;;;;5085273;28;20539;-56
2021/08/12 07:42:08;;;;;;;11.00;3.67;;;32.30;85.20;;;;;;5080938;28;20096;-54
2021/08/12 07:44:35;;;;;;;18.83;3.90;;;32.30;85.60;;;;;;5084921;28;20112;-53
2021/08/12 07:47:01;;;;;;;20.52;4.90;;;32.30;85.90;;;;;;5080965;28;20155;-56
2021/08/12 07:49:28;;;;;;;15.80;4.60;;;32.30;85.60;;;;;;5080555;28;20076;-57
2021/08/12 07:51:54;;;;;;;21.70;4.90;;;32.30;85.70;;;;;;5082450;28;20116;-56
2021/08/12 07:54:21;;;;;;;18.38;4.78;;;32.30;85.30;;;;;;5081179;28;20079;-56
2021/08/12 07:56:48;;;;;;;19.88;5.35;;;32.20;85.50;;;;;;5102600;28;20079;-56
2021/08/12 07:59:16;;;;;;;27.45;5.13;;;32.20;85.30;;;;;;5082033;28;20073;-56
2021/08/12 08:01:43;;;;;;;25.10;5.68;;;32.50;85.20;;;;;;5080915;28;20068;-57
2021/08/12 08:04:09;;;;;;;18.98;5.20;;;32.10;85.20;;;;;;5083022;28;20072;-56
2021/08/12 08:06:36;;;;;;;17.45;5.15;;;32.10;85.80;;;;;;5083053;28;20064;-56
2021/08/12 08:09:02;;;;;;;18.00;4.82;;;32.10;85.60;;;;;;5084865;28;20081;-56
2021/08/12 08:11:31;;;;;;;21.48;4.03;;;32.00;85.50;;;;;;5083907;28;20104;-56
2021/08/12 08:13:57;;;;;;;16.70;4.47;;;32.00;85.60;;;;;;5082979;28;20163;-57
2021/08/12 08:16:26;;;;;;;21.75;5.18;;;32.00;85.90;;;;;;5083920;28;20437;-56
2021/08/12 08:18:53;;;;;;;20.17;4.20;;;32.00;86.10;;;;;;5086418;28;20159;-53
2021/08/12 08:21:20;;;;;;;13.70;3.92;;;32.00;86.10;;;;;;5082909;28;20069;-59
2021/08/12 08:23:46;;;;;;;18.75;3.97;;;31.90;86.40;;;;;;5083891;28;20522;-57
2021/08/12 08:26:13;;;;;;;15.63;4.57;;;31.90;86.50;;;;;;5082352;28;20073;-52
2021/08/12 08:28:40;;;;;;;17.80;4.05;;;31.90;86.80;;;;;;5083607;28;20077;-55
2021/08/12 08:31:06;;;;;;;15.88;4.05;;;31.90;86.50;;;;;;5085032;28;20084;-57
2021/08/12 08:33:35;;;;;;;23.25;4.63;;;31.80;86.70;;;;;;5082340;28;20203;-57
2021/08/12 08:36:03;;;;;;;18.55;4.93;;;31.80;87.00;;;;;;5082285;28;20079;-54
2021/08/12 08:38:30;;;;;;;15.18;4.10;;;31.80;86.90;;;;;;5085565;28;20099;-53
2021/08/12 08:40:57;;;;;;;12.77;3.63;;;31.80;86.90;;;;;;5080815;28;20111;-54
2021/08/12 08:43:27;;;;;;;20.95;3.83;;;31.80;87.60;;;;;;5083339;28;20124;-56
2021/08/12 08:45:57;;;;;;;13.35;4.30;;;31.80;87.60;;;;;;5083376;28;20518;-57
2021/08/12 08:48:25;;;;;;;22.75;4.20;;;31.80;88.00;;;;;;5082177;28;20096;-53
2021/08/12 08:50:53;;;;;;;19.08;3.90;;;31.70;88.00;;;;;;5084560;28;20113;-53
2021/08/12 08:53:19;;;;;;;17.10;4.00;;;31.70;88.80;;;;;;5079823;28;20458;-53
2021/08/12 08:55:46;;;;;;;13.98;3.63;;;31.70;88.30;;;;;;5082669;28;20091;-53
2021/08/12 08:58:14;;;;;;;13.32;3.78;;;31.70;88.50;;;;;;5083742;28;20077;-55
2021/08/12 09:00:41;;;;;;;25.02;4.22;;;31.60;89.00;;;;;;5083619;28;20080;-58
2021/08/12 09:03:07;;;;;;;18.45;4.05;;;31.70;89.00;;;;;;5082077;28;20112;-57
2021/08/12 09:05:35;;;;;;;17.30;3.15;;;31.60;89.90;;;;;;5085222;28;20072;-53
2021/08/12 09:08:02;;;;;;;16.40;3.45;;;31.70;89.30;;;;;;5081339;28;20176;-54
2021/08/12 09:10:29;;;;;;;14.88;3.55;;;31.60;89.20;;;;;;5080651;28;20072;-53
2021/08/12 09:12:56;;;;;;;16.67;3.17;;;31.60;89.60;;;;;;5082812;28;20091;-55
2021/08/12 09:15:23;;;;;;;15.98;2.90;;;31.60;89.60;;;;;;5083726;28;20580;-52
2021/08/12 09:17:53;;;;;;;18.42;3.60;;;31.60;89.40;;;;;;5078478;28;20534;-53
2021/08/12 09:20:22;;;;;;;19.17;4.10;;;31.60;89.30;;;;;;5083637;28;20079;-55
2021/08/12 09:23:07;;;;;;;18.33;3.92;;;31.50;89.60;;;;;;5082066;28;20498;-53
2021/08/12 09:25:44;;;;;;;16.50;4.75;;;31.40;89.60;;;;;;5083990;28;20152;-54
2021/08/12 09:28:31;;;;;;;19.85;6.05;;;31.40;89.60;;;;;;5081899;28;20069;-55
2021/08/12 09:30:57;;;;;;;;;;;31.30;88.70;;;;;;5083453;28;20076;-57
2021/08/12 09:33:25;;;;;;;34.67;10.20;;;31.30;88.70;;;;;;5080883;28;19967;-52
2021/08/12 09:35:53;;;;;;;31.13;10.75;;;31.30;89.00;;;;;;5082844;28;20073;-56
2021/08/12 09:38:21;;;;;;;30.27;9.95;;;31.20;89.20;;;;;;5080877;28;20108;-54
2021/08/12 09:40:53;;;;;;;22.27;6.78;;;31.20;90.20;;;;;;5082822;28;20434;-52
2021/08/12 09:43:20;;;;;;;14.73;5.13;;;31.20;89.50;;;;;;5089388;28;20099;-53
2021/08/12 09:45:47;;;;;;;23.33;4.53;;;31.20;89.60;;;;;;5089013;28;20126;-56
2021/08/12 09:48:19;;;;;;;20.23;3.00;;;31.20;90.00;;;;;;5083909;28;20073;-57
2021/08/12 09:51:06;;;;;;;17.30;3.30;;;31.10;89.60;;;;;;5086187;28;20116;-54
2021/08/12 09:53:33;;;;;;;;;;;31.00;89.20;;;;;;5085107;28;20485;-56
2021/08/12 09:56:11;;;;;;;16.08;3.70;;;31.00;88.10;;;;;;5082050;28;19961;-53
2021/08/12 09:58:38;;;;;;;14.48;2.90;;;31.00;87.90;;;;;;5083220;28;20168;-53
2021/08/12 10:01:25;;;;;;;12.43;3.28;;;31.10;86.50;;;;;;5083712;28;20476;-56
2021/08/12 10:03:54;;;;;;;14.70;3.55;;;31.10;85.00;;;;;;5082506;28;20105;-56
2021/08/12 10:06:27;;;;;;;10.95;3.08;;;31.00;84.40;;;;;;5082243;28;20609;-53
2021/08/12 10:08:54;;;;;;;15.27;4.07;;;31.00;85.40;;;;;;5082309;28;20156;-58
2021/08/12 10:11:26;;;;;;;15.23;3.35;;;31.10;85.00;;;;;;5085736;28;20068;-57
2021/08/12 10:13:56;;;;;;;15.38;3.35;;;31.00;85.30;;;;;;5086195;28;20118;-54
2021/08/12 10:16:25;;;;;;;15.07;4.10;;;30.90;86.20;;;;;;5086729;28;20166;-56
2021/08/12 10:18:53;;;;;;;15.70;4.00;;;30.90;86.60;;;;;;5081164;28;20445;-54
2021/08/12 10:21:20;;;;;;;18.02;5.10;;;30.80;87.70;;;;;;5084528;28;20089;-59
2021/08/12 10:23:50;;;;;;;14.48;4.38;;;30.80;88.20;;;;;;5083010;28;20093;-54
2021/08/12 10:26:23;;;;;;;13.60;3.72;;;30.80;88.60;;;;;;5085005;28;20120;-54
2021/08/12 10:28:54;;;;;;;16.25;4.00;;;30.80;88.90;;;;;;5086854;28;20085;-53
2021/08/12 10:31:24;;;;;;;15.98;3.83;;;30.80;89.20;;;;;;5084970;28;20161;-56
2021/08/12 10:33:51;;;;;;;10.00;3.63;;;30.80;90.10;;;;;;5086946;28;20093;-52
2021/08/12 10:36:19;;;;;;;14.75;3.17;;;30.70;90.00;;;;;;5081833;28;20168;-56
2021/08/12 10:38:45;;;;;;;13.82;3.38;;;30.80;90.20;;;;;;5083930;28;20073;-55
2021/08/12 10:41:15;;;;;;;13.40;3.33;;;30.70;90.30;;;;;;5084562;28;20191;-55
2021/08/12 10:43:44;;;;;;;14.27;3.30;;;30.70;90.40;;;;;;5084809;28;20507;-56
2021/08/12 10:46:10;;;;;;;14.73;3.20;;;30.70;90.60;;;;;;5086128;28;20073;-53
2021/08/12 10:48:38;;;;;;;12.13;2.85;;;30.60;90.80;;;;;;5082179;28;20583;-53
2021/08/12 10:51:12;;;;;;;9.10;2.45;;;30.60;91.20;;;;;;5083216;28;20108;-53
2021/08/12 10:53:44;;;;;;;15.07;3.10;;;30.50;91.40;;;;;;5084161;28;20133;-53
2021/08/12 10:56:20;;;;;;;16.50;2.67;;;30.50;91.50;;;;;;5085233;28;20115;-57
2021/08/12 10:58:49;;;;;;;11.00;2.90;;;30.50;91.40;;;;;;5082523;28;20073;-54
2021/08/12 11:01:30;;;;;;;10.95;2.45;;;30.50;91.60;;;;;;5082812;28;20473;-53
2021/08/12 11:04:06;;;;;;;16.27;2.90;;;30.50;91.70;;;;;;5082456;28;20104;-55
2021/08/12 11:06:38;;;;;;;14.05;2.50;;;30.50;91.70;;;;;;5087518;28;20509;-54
2021/08/12 11:09:08;;;;;;;12.40;2.80;;;30.60;91.80;;;;;;5084288;28;20077;-55
2021/08/12 11:11:34;;;;;;;15.02;3.10;;;30.60;91.70;;;;;;5085744;28;20441;-55
2021/08/12 11:14:04;;;;;;;14.07;2.80;;;30.50;91.70;;;;;;5084954;28;20072;-56
2021/08/12 11:16:42;;;;;;;12.05;2.20;;;30.50;92.10;;;;;;5087804;28;20091;-55
2021/08/12 11:19:30;;;;;;;16.58;3.38;;;30.50;92.20;;;;;;5083346;28;20647;-54
2021/08/12 11:21:59;;;;;;;15.90;2.63;;;30.40;92.40;;;;;;5071425;28;20108;-54
2021/08/12 11:24:25;;;;;;;11.05;3.45;;;30.40;93.00;;;;;;5082242;28;20089;-57
2021/08/12 11:26:51;;;;;;;14.35;2.70;;;30.40;93.20;;;;;;5083169;28;20145;-53
2021/08/12 11:31:51;;;;;;;13.13;3.17;;;30.40;93.80;;;;;;5082201;28;20081;-55
2021/08/12 11:34:31;;;;;;;11.85;2.72;;;30.40;94.20;;;;;;5085834;28;20091;-58
2021/08/12 11:37:12;;;;;;;14.02;2.55;;;30.40;94.40;;;;;;5084446;28;20427;-58
2021/08/12 11:40:06;;;;;;;18.60;3.42;;;30.40;94.40;;;;;;5081611;28;20125;-55
2021/08/12 11:42:40;;;;;;;12.25;2.63;;;30.30;95.40;;;;;;5082496;28;20623;-57
2021/08/12 11:45:08;;;;;;;16.25;2.45;;;30.30;95.20;;;;;;5084175;28;20088;-53
2021/08/12 11:47:36;;;;;;;9.95;2.47;;;30.20;96.00;;;;;;5086525;28;20538;-56
2021/08/12 11:50:04;;;;;;;10.80;2.70;;;30.10;96.40;;;;;;5083165;28;20073;-54
2021/08/12 11:52:36;;;;;;;17.20;3.47;;;30.20;96.50;;;;;;5084992;28;21608;-55
2021/08/12 11:55:13;;;;;;;8.65;2.67;;;30.10;96.70;;;;;;5083638;28;20422;-55
2021/08/12 11:57:50;;;;;;;12.10;2.70;;;30.10;97.20;;;;;;5081615;28;20083;-56
2021/08/12 12:00:22;;;;;;;14.05;2.42;;;30.10;97.10;;;;;;5082280;28;20080;-54
2021/08/12 12:02:52;;;;;;;13.65;3.20;;;30.10;97.20;;;;;;5080179;28;20187;-54
2021/08/12 12:05:24;;;;;;;12.07;2.75;;;30.20;97.30;;;;;;5082499;28;20129;-53
2021/08/12 12:07:55;;;;;;;8.77;2.60;;;30.10;97.50;;;;;;5082747;28;20081;-52
2021/08/12 12:10:22;;;;;;;14.75;3.15;;;30.10;97.60;;;;;;5084960;28;20061;-55
2021/08/12 12:12:49;;;;;;;15.35;3.45;;;30.10;98.00;;;;;;5078339;28;20097;-53
2021/08/12 12:15:37;;;;;;;13.23;3.67;;;30.00;98.40;;;;;;5082912;28;20077;-54
2021/08/12 12:18:04;;;;;;;14.88;2.92;;;30.00;98.70;;;;;;5080174;28;20081;-56
2021/08/12 12:20:37;;;;;;;14.45;3.38;;;30.00;99.90;;;;;;5082205;28;20080;-53
2021/08/12 12:23:09;;;;;;;14.95;3.15;;;30.00;99.40;;;;;;5086966;28;20449;-55
2021/08/12 12:25:37;;;;;;;23.45;4.90;;;30.00;99.20;;;;;;5085103;28;20579;-56
2021/08/12 12:28:05;;;;;;;19.13;5.38;;;30.00;99.50;;;;;;5081960;28;20088;-54
2021/08/12 12:30:33;;;;;;;15.18;5.15;;;30.10;99.30;;;;;;5083775;28;20073;-54
2021/08/12 12:33:08;;;;;;;18.73;4.50;;;30.00;99.30;;;;;;5082412;28;20088;-53
2021/08/12 12:35:39;;;;;;;19.42;3.78;;;30.00;99.60;;;;;;5082539;28;20069;-53
2021/08/12 12:38:08;;;;;;;12.52;2.60;;;29.90;99.80;;;;;;5079591;28;20096;-56
2021/08/12 12:40:37;;;;;;;12.23;2.70;;;29.90;99.90;;;;;;5081791;28;20064;-54
2021/08/12 12:43:04;;;;;;;11.55;2.63;;;29.90;99.90;;;;;;5083465;28;20576;-53
2021/08/12 12:45:50;;;;;;;17.48;3.40;;;29.90;99.90;;;;;;5085590;28;20093;-57
2021/08/12 12:48:25;;;;;;;9.77;2.63;;;29.90;99.90;;;;;;5085412;28;20083;-53
2021/08/12 12:50:52;;;;;;;16.42;3.50;;;29.90;99.90;;;;;;5082888;28;20454;-53
2021/08/12 12:53:36;;;;;;;15.77;2.90;;;29.90;99.90;;;;;;5081768;28;20730;-53